Terminal Aerodrome Forecast
Issued by NWS

Home | Current Version | Previous Version | Text Only | Print | Product List | Glossary On
Versions: 1 2 3 4 5 6 7 8 9 10 11 12 13 14 15 16 17 18
000
FTUS44 KHGX 031812 AAA
TAFCXO
TAF AMD
KCXO 031812Z 0318/0418 06010G20KT P6SM -RA VCTS SCT007 BKN040CB
      TEMPO 0318/0322 3SM RA BR OVC007
     FM040000 02007KT 4SM -SHRA SCT004 BKN007 OVC012
     FM040900 36009KT 3SM SHRA VCTS OVC007CB=

USA.gov is the U.S. government's official web portal to all federal, state and local government web resources and services.